Time;durP1;ratioP1;P1;durP2;ratioP2;P2;SDS_P1;SDS_P2;PMS_P1;PMS_P2;Temp;Humidity;BMP_temperature;BMP_pressure;BME280_temperature;BME280_humidity;BME280_pressure;Samples;Min_cycle;Max_cycle;Signal;HPM_P1;HPM_P2
2023/07/21 00:00:01;;;;;;;1.20;0.73;;;;;;;;;;5022448;28;20086;-79
2023/07/21 00:02:26;;;;;;;1.63;0.75;;;;;;;;;;5038602;28;20041;-80
2023/07/21 00:04:52;;;;;;;1.20;1.10;;;;;;;;;;5032392;28;20040;-76
2023/07/21 00:07:18;;;;;;;0.77;0.70;;;;;;;;;;5032691;28;20041;-77
2023/07/21 00:09:43;;;;;;;1.25;1.05;;;;;;;;;;5034011;28;20051;-80
2023/07/21 00:12:09;;;;;;;0.80;0.80;;;;;;;;;;5037474;28;20036;-78
2023/07/21 00:14:34;;;;;;;1.55;1.02;;;;;;;;;;5039448;28;20108;-78
2023/07/21 00:17:01;;;;;;;0.90;0.90;;;;;;;;;;5037892;28;20960;-80
2023/07/21 00:19:26;;;;;;;0.63;0.63;;;;;;;;;;5037934;28;20044;-79
2023/07/21 00:21:52;;;;;;;0.50;0.50;;;;;;;;;;5027584;28;20035;-78
2023/07/21 00:24:18;;;;;;;0.98;0.88;;;;;;;;;;5021508;28;20505;-76
2023/07/21 00:26:45;;;;;;;1.35;0.55;;;;;;;;;;5021283;28;20033;-76
2023/07/21 00:29:10;;;;;;;1.23;0.80;;;;;;;;;;5037439;28;20427;-76
2023/07/21 00:31:38;;;;;;;0.82;0.52;;;;;;;;;;5037034;28;20052;-75
2023/07/21 00:34:04;;;;;;;0.80;0.80;;;;;;;;;;5035047;28;20039;-75
2023/07/21 00:36:30;;;;;;;0.73;0.70;;;;;;;;;;5007736;28;20041;-75
2023/07/21 00:38:58;;;;;;;0.73;0.73;;;;;;;;;;5037105;28;20037;-75
2023/07/21 00:41:24;;;;;;;0.70;0.70;;;;;;;;;;5036635;28;20991;-76
2023/07/21 00:43:50;;;;;;;2.13;0.80;;;;;;;;;;5037578;28;20055;-76
2023/07/21 00:46:16;;;;;;;0.65;0.63;;;;;;;;;;5033962;28;20044;-76
2023/07/21 00:48:41;;;;;;;0.70;0.70;;;;;;;;;;5020431;28;20091;-76
2023/07/21 00:51:09;;;;;;;0.68;0.65;;;;;;;;;;5026844;28;20059;-75
2023/07/21 00:53:35;;;;;;;0.60;0.60;;;;;;;;;;5036559;28;20047;-76
2023/07/21 00:56:01;;;;;;;0.60;0.60;;;;;;;;;;5037288;28;20037;-75
2023/07/21 00:58:27;;;;;;;0.80;0.80;;;;;;;;;;5037492;28;20098;-78
2023/07/21 01:00:53;;;;;;;0.70;0.70;;;;;;;;;;5020854;28;20029;-78
2023/07/21 01:03:18;;;;;;;0.80;0.80;;;;;;;;;;5026235;28;20047;-79
2023/07/21 01:05:49;;;;;;;0.70;0.70;;;;;;;;;;5037314;28;20036;-79
2023/07/21 01:08:15;;;;;;;1.02;0.70;;;;;;;;;;5037221;28;20590;-79
2023/07/21 01:10:41;;;;;;;0.75;0.75;;;;;;;;;;5036703;28;20048;-76
2023/07/21 01:13:09;;;;;;;0.90;0.90;;;;;;;;;;5020346;28;20037;-75
2023/07/21 01:15:37;;;;;;;0.70;0.70;;;;;;;;;;5040736;28;20480;-76
2023/07/21 01:18:04;;;;;;;1.25;0.73;;;;;;;;;;5025323;28;20570;-75
2023/07/21 01:20:31;;;;;;;1.30;0.80;;;;;;;;;;5020373;28;20055;-76
2023/07/21 01:23:15;;;;;;;0.70;0.70;;;;;;;;;;5036768;28;20057;-76
2023/07/21 01:25:42;;;;;;;0.50;0.50;;;;;;;;;;5018015;28;20040;-76
2023/07/21 01:28:09;;;;;;;0.68;0.65;;;;;;;;;;5026200;28;20033;-76
2023/07/21 01:30:35;;;;;;;0.70;0.70;;;;;;;;;;5035830;28;20071;-76
2023/07/21 01:33:03;;;;;;;0.70;0.70;;;;;;;;;;5019822;28;20458;-76
2023/07/21 01:35:30;;;;;;;0.95;0.95;;;;;;;;;;5020371;28;20429;-75
2023/07/21 01:37:57;;;;;;;1.00;0.90;;;;;;;;;;5035121;28;20588;-76
2023/07/21 01:40:25;;;;;;;1.77;0.90;;;;;;;;;;5036511;28;20123;-76
2023/07/21 01:42:51;;;;;;;0.80;0.70;;;;;;;;;;5026004;28;20036;-79
2023/07/21 01:45:16;;;;;;;0.70;0.70;;;;;;;;;;5036726;28;20029;-79
2023/07/21 01:47:45;;;;;;;1.17;0.70;;;;;;;;;;5035967;28;20433;-78
2023/07/21 01:50:13;;;;;;;1.05;1.05;;;;;;;;;;5033603;28;20064;-78
2023/07/21 01:52:39;;;;;;;0.70;0.70;;;;;;;;;;5035297;28;20025;-76
2023/07/21 01:55:14;;;;;;;2.65;1.10;;;;;;;;;;5009694;28;20041;-76
2023/07/21 01:57:46;;;;;;;0.60;0.60;;;;;;;;;;5034759;28;20125;-76
2023/07/21 02:00:13;;;;;;;0.80;0.80;;;;;;;;;;5034931;28;20033;-76
2023/07/21 02:02:43;;;;;;;1.02;0.90;;;;;;;;;;5035658;28;20045;-76
2023/07/21 02:05:25;;;;;;;1.42;0.60;;;;;;;;;;5035987;28;20072;-76
2023/07/21 02:07:50;;;;;;;0.80;0.80;;;;;;;;;;5008954;28;20046;-75
2023/07/21 02:10:17;;;;;;;0.70;0.70;;;;;;;;;;5018971;28;20103;-76
2023/07/21 02:12:42;;;;;;;0.70;0.70;;;;;;;;;;5035284;28;20033;-75
2023/07/21 02:15:09;;;;;;;0.80;0.80;;;;;;;;;;5034891;28;20036;-75
2023/07/21 02:17:35;;;;;;;0.77;0.77;;;;;;;;;;5035373;28;20124;-75
2023/07/21 02:20:07;;;;;;;1.00;0.85;;;;;;;;;;5025113;28;20116;-75
2023/07/21 02:22:32;;;;;;;0.60;0.60;;;;;;;;;;5034935;28;20083;-75
2023/07/21 02:24:57;;;;;;;2.08;1.02;;;;;;;;;;5035719;28;20609;-75
2023/07/21 02:27:23;;;;;;;1.10;0.98;;;;;;;;;;5034856;28;20108;-75
2023/07/21 02:29:49;;;;;;;2.35;0.90;;;;;;;;;;5035271;28;20071;-75
2023/07/21 02:32:14;;;;;;;0.90;0.90;;;;;;;;;;5034780;28;20045;-75
2023/07/21 02:34:41;;;;;;;0.70;0.70;;;;;;;;;;5025074;28;20558;-75
2023/07/21 02:37:07;;;;;;;0.63;0.63;;;;;;;;;;5034209;28;20056;-75
2023/07/21 02:39:32;;;;;;;0.95;0.80;;;;;;;;;;5034897;28;20102;-75
2023/07/21 02:41:59;;;;;;;0.60;0.60;;;;;;;;;;5018899;28;20524;-75
2023/07/21 02:44:25;;;;;;;0.70;0.70;;;;;;;;;;5033961;28;20602;-75
2023/07/21 02:46:51;;;;;;;0.90;0.90;;;;;;;;;;5034984;28;20040;-75
2023/07/21 02:49:17;;;;;;;0.75;0.75;;;;;;;;;;5008715;28;20046;-76
2023/07/21 02:51:43;;;;;;;0.95;0.95;;;;;;;;;;5018920;28;20052;-76
2023/07/21 02:54:08;;;;;;;0.93;0.93;;;;;;;;;;5034492;28;20436;-76
2023/07/21 02:56:34;;;;;;;0.90;0.80;;;;;;;;;;5035165;28;20045;-76
2023/07/21 02:59:00;;;;;;;0.82;0.82;;;;;;;;;;5018372;28;20561;-75
2023/07/21 03:01:26;;;;;;;0.90;0.90;;;;;;;;;;5024092;28;20094;-75
2023/07/21 03:03:55;;;;;;;1.17;0.98;;;;;;;;;;5018519;28;20037;-75
2023/07/21 03:06:21;;;;;;;1.35;0.80;;;;;;;;;;5034144;28;20429;-75
2023/07/21 03:08:46;;;;;;;0.63;0.63;;;;;;;;;;5034163;28;20044;-75
2023/07/21 03:11:13;;;;;;;1.02;1.02;;;;;;;;;;5018524;28;20092;-75
2023/07/21 03:13:40;;;;;;;0.80;0.80;;;;;;;;;;5035426;28;20029;-76
2023/07/21 03:16:07;;;;;;;1.45;1.27;;;;;;;;;;5008729;28;20044;-79
2023/07/21 03:18:32;;;;;;;0.80;0.80;;;;;;;;;;5016222;28;20126;-78
2023/07/21 03:20:59;;;;;;;2.58;1.17;;;;;;;;;;5018607;28;20529;-78
2023/07/21 03:23:25;;;;;;;1.10;1.10;;;;;;;;;;5033281;28;20123;-78
2023/07/21 03:25:50;;;;;;;0.90;0.90;;;;;;;;;;5034777;28;20497;-78
2023/07/21 03:28:15;;;;;;;1.00;0.88;;;;;;;;;;5033461;28;20037;-78
2023/07/21 03:30:41;;;;;;;1.00;0.60;;;;;;;;;;5007454;28;20053;-76
2023/07/21 03:33:06;;;;;;;1.02;0.90;;;;;;;;;;5035022;28;20033;-76
2023/07/21 03:35:32;;;;;;;0.98;0.75;;;;;;;;;;5034786;28;20075;-76
2023/07/21 03:37:58;;;;;;;0.60;0.60;;;;;;;;;;5034555;28;20162;-76
2023/07/21 03:40:24;;;;;;;0.95;0.90;;;;;;;;;;5033904;28;20056;-76
2023/07/21 03:42:49;;;;;;;0.90;0.90;;;;;;;;;;5017882;28;20460;-76
2023/07/21 03:45:15;;;;;;;0.60;0.60;;;;;;;;;;5015900;28;20047;-75
2023/07/21 03:47:40;;;;;;;1.00;1.00;;;;;;;;;;5031228;28;20574;-75
2023/07/21 03:50:08;;;;;;;0.50;0.50;;;;;;;;;;5033393;28;20143;-76
2023/07/21 03:52:33;;;;;;;0.55;0.55;;;;;;;;;;5032824;28;20116;-76
2023/07/21 03:54:59;;;;;;;0.65;0.65;;;;;;;;;;5030657;28;20120;-76
2023/07/21 03:57:24;;;;;;;0.50;0.50;;;;;;;;;;5012865;28;20572;-77
2023/07/21 03:59:50;;;;;;;0.60;0.60;;;;;;;;;;5007037;28;20117;-76
2023/07/21 04:02:16;;;;;;;0.65;0.65;;;;;;;;;;5016985;28;20044;-76
2023/07/21 04:04:45;;;;;;;0.60;0.60;;;;;;;;;;5032962;28;20044;-75
2023/07/21 04:07:11;;;;;;;0.60;0.60;;;;;;;;;;5033682;28;20037;-75
2023/07/21 04:09:37;;;;;;;1.42;1.00;;;;;;;;;;5030696;28;20064;-75
2023/07/21 04:12:04;;;;;;;0.90;0.90;;;;;;;;;;5019884;28;20836;-75
2023/07/21 04:14:31;;;;;;;0.98;0.98;;;;;;;;;;5034342;28;20033;-74
2023/07/21 04:16:56;;;;;;;0.80;0.80;;;;;;;;;;5035063;28;20119;-76
2023/07/21 04:19:21;;;;;;;0.93;0.90;;;;;;;;;;5034796;28;20136;-74
2023/07/21 04:21:47;;;;;;;1.60;1.10;;;;;;;;;;5022118;28;20036;-75
2023/07/21 04:24:13;;;;;;;0.68;0.68;;;;;;;;;;5018437;28;20053;-74
2023/07/21 04:26:39;;;;;;;3.30;1.10;;;;;;;;;;5011586;28;20040;-74
2023/07/21 04:29:04;;;;;;;1.40;1.30;;;;;;;;;;5018612;28;20036;-75
2023/07/21 04:31:30;;;;;;;2.30;0.95;;;;;;;;;;5037300;28;20036;-76
2023/07/21 04:33:55;;;;;;;1.48;1.20;;;;;;;;;;5021601;28;20135;-77
2023/07/21 04:36:21;;;;;;;2.95;1.17;;;;;;;;;;5035763;28;20060;-76
2023/07/21 04:38:47;;;;;;;1.17;1.00;;;;;;;;;;5020204;28;20509;-76
2023/07/21 04:41:13;;;;;;;1.25;1.15;;;;;;;;;;5025620;28;20494;-76
2023/07/21 04:43:38;;;;;;;0.63;0.55;;;;;;;;;;5018410;28;20051;-76
2023/07/21 04:46:04;;;;;;;0.98;0.73;;;;;;;;;;5031258;28;20049;-77
2023/07/21 04:48:29;;;;;;;0.95;0.95;;;;;;;;;;5034081;28;20033;-77
2023/07/21 04:50:56;;;;;;;0.85;0.75;;;;;;;;;;5035214;28;20048;-77
2023/07/21 04:53:22;;;;;;;2.58;1.30;;;;;;;;;;5027909;28;20570;-77
2023/07/21 04:55:48;;;;;;;1.15;0.90;;;;;;;;;;5033949;28;20044;-77
2023/07/21 04:58:14;;;;;;;2.83;1.50;;;;;;;;;;5034239;28;20720;-77
2023/07/21 05:00:39;;;;;;;1.67;1.30;;;;;;;;;;5035144;28;20044;-77
2023/07/21 05:03:04;;;;;;;1.10;0.98;;;;;;;;;;5034506;28;20041;-77
2023/07/21 05:05:32;;;;;;;1.42;1.20;;;;;;;;;;5034759;28;20037;-77
2023/07/21 05:07:59;;;;;;;0.70;0.70;;;;;;;;;;5024338;28;20056;-79
2023/07/21 05:10:25;;;;;;;1.15;0.95;;;;;;;;;;5020626;28;20041;-78
2023/07/21 05:15:22;;;;;;;1.38;1.08;;;;;;;;;;5017442;28;20054;-74
2023/07/21 05:17:47;;;;;;;1.17;1.08;;;;;;;;;;5024168;28;20044;-74
2023/07/21 05:20:13;;;;;;;1.27;1.23;;;;;;;;;;5031213;28;20148;-75
2023/07/21 05:22:38;;;;;;;0.80;0.80;;;;;;;;;;5021113;28;20041;-77
2023/07/21 05:25:08;;;;;;;1.25;1.10;;;;;;;;;;5040167;28;20045;-76
2023/07/21 05:27:34;;;;;;;2.00;1.70;;;;;;;;;;5031540;28;20063;-76
2023/07/21 05:29:59;;;;;;;2.13;1.60;;;;;;;;;;5035839;28;20029;-74
2023/07/21 05:32:25;;;;;;;1.45;1.30;;;;;;;;;;5035075;28;20067;-75
2023/07/21 05:34:50;;;;;;;2.05;1.10;;;;;;;;;;5024933;28;20516;-75
2023/07/21 05:37:15;;;;;;;1.35;1.25;;;;;;;;;;5032689;28;20429;-75
2023/07/21 05:39:41;;;;;;;2.75;0.98;;;;;;;;;;5022459;28;20587;-74
2023/07/21 05:42:07;;;;;;;2.30;1.40;;;;;;;;;;5029823;28;20039;-75
2023/07/21 05:44:33;;;;;;;1.42;1.35;;;;;;;;;;5047618;28;20036;-75
2023/07/21 05:46:59;;;;;;;1.45;1.35;;;;;;;;;;5049719;28;20091;-75
2023/07/21 05:49:25;;;;;;;1.52;1.42;;;;;;;;;;5025023;28;20029;-76
2023/07/21 05:51:51;;;;;;;1.63;1.52;;;;;;;;;;5034197;28;20044;-73
2023/07/21 05:54:16;;;;;;;1.63;1.52;;;;;;;;;;5043729;28;20045;-74
2023/07/21 05:56:42;;;;;;;3.00;1.65;;;;;;;;;;5016733;28;20087;-75
2023/07/21 05:59:07;;;;;;;2.65;1.90;;;;;;;;;;5022149;28;20060;-75
2023/07/21 06:01:36;;;;;;;2.50;1.70;;;;;;;;;;5041773;28;20058;-73
2023/07/21 06:04:01;;;;;;;2.58;1.30;;;;;;;;;;5028624;28;20041;-74
2023/07/21 06:06:28;;;;;;;4.53;1.70;;;;;;;;;;5017888;28;20580;-76
2023/07/21 06:08:53;;;;;;;2.80;1.30;;;;;;;;;;5034396;28;20032;-74
2023/07/21 06:11:19;;;;;;;2.95;1.23;;;;;;;;;;5038875;28;20040;-74
2023/07/21 06:13:44;;;;;;;2.40;1.40;;;;;;;;;;5040470;28;20037;-74
2023/07/21 06:16:10;;;;;;;4.82;1.70;;;;;;;;;;5045411;28;20483;-74
2023/07/21 06:18:38;;;;;;;1.77;0.90;;;;;;;;;;5034298;28;20038;-74
2023/07/21 06:21:03;;;;;;;0.80;0.80;;;;;;;;;;5040360;28;20036;-75
2023/07/21 06:23:29;;;;;;;0.82;0.80;;;;;;;;;;5036295;28;20044;-75
2023/07/21 06:25:54;;;;;;;1.05;0.95;;;;;;;;;;5032570;28;20405;-75
2023/07/21 06:28:20;;;;;;;1.50;1.40;;;;;;;;;;5034300;28;20467;-75
2023/07/21 06:30:45;;;;;;;1.88;1.45;;;;;;;;;;5028390;28;20037;-74
2023/07/21 06:33:11;;;;;;;1.90;1.50;;;;;;;;;;5011274;28;20642;-76
2023/07/21 06:35:36;;;;;;;2.15;1.52;;;;;;;;;;5041725;28;20033;-76
2023/07/21 06:38:01;;;;;;;1.95;1.45;;;;;;;;;;5045885;28;20040;-75
2023/07/21 06:40:27;;;;;;;1.38;1.27;;;;;;;;;;5025254;28;20044;-75
2023/07/21 06:42:52;;;;;;;1.30;0.95;;;;;;;;;;5044215;28;20419;-74
2023/07/21 06:45:18;;;;;;;1.02;1.02;;;;;;;;;;5031364;28;20040;-75
2023/07/21 06:47:43;;;;;;;1.55;1.25;;;;;;;;;;5044548;28;20523;-75
2023/07/21 06:50:09;;;;;;;1.40;1.30;;;;;;;;;;5020939;28;20128;-75
2023/07/21 06:52:34;;;;;;;1.30;1.20;;;;;;;;;;5023470;28;20038;-76
2023/07/21 06:55:01;;;;;;;0.80;0.80;;;;;;;;;;5017926;28;20056;-76
2023/07/21 06:57:26;;;;;;;0.73;0.73;;;;;;;;;;4998262;28;20435;-76
2023/07/21 06:59:52;;;;;;;0.80;0.80;;;;;;;;;;5034197;28;20102;-76
2023/07/21 07:02:20;;;;;;;1.23;1.13;;;;;;;;;;5040712;28;20067;-76
2023/07/21 07:04:48;;;;;;;1.15;0.68;;;;;;;;;;5023981;28;20037;-76
2023/07/21 07:07:14;;;;;;;0.95;0.93;;;;;;;;;;5045261;28;20044;-76
2023/07/21 07:09:40;;;;;;;1.23;1.15;;;;;;;;;;5037781;28;20060;-76
2023/07/21 07:12:08;;;;;;;1.70;1.10;;;;;;;;;;5043568;28;20064;-76
2023/07/21 07:14:33;;;;;;;1.10;1.08;;;;;;;;;;5034886;28;21135;-76
2023/07/21 07:16:59;;;;;;;0.90;0.90;;;;;;;;;;5043645;28;20119;-75
2023/07/21 07:19:24;;;;;;;1.20;1.10;;;;;;;;;;5023886;28;20702;-76
2023/07/21 07:21:49;;;;;;;1.17;1.17;;;;;;;;;;5035076;28;20026;-75
2023/07/21 07:24:15;;;;;;;1.05;1.05;;;;;;;;;;5031006;28;20560;-76
2023/07/21 07:26:40;;;;;;;1.10;1.00;;;;;;;;;;5021619;28;20690;-75
2023/07/21 07:29:06;;;;;;;1.25;1.00;;;;;;;;;;5043627;28;20045;-75
2023/07/21 07:31:31;;;;;;;1.58;1.40;;;;;;;;;;5034196;28;20045;-76
2023/07/21 07:33:57;;;;;;;2.38;1.45;;;;;;;;;;5010689;28;20417;-75
2023/07/21 07:36:23;;;;;;;1.58;1.48;;;;;;;;;;5026574;28;20631;-75
2023/07/21 07:38:48;;;;;;;2.00;1.65;;;;;;;;;;5040507;28;20577;-76
2023/07/21 07:41:13;;;;;;;1.67;1.58;;;;;;;;;;5020436;28;20037;-75
2023/07/21 07:43:39;;;;;;;2.95;1.83;;;;;;;;;;5035878;28;20117;-75
2023/07/21 07:46:07;;;;;;;2.40;1.65;;;;;;;;;;5040603;28;20064;-75
2023/07/21 07:48:35;;;;;;;2.22;1.80;;;;;;;;;;5038736;28;20029;-75
2023/07/21 07:51:05;;;;;;;1.73;1.63;;;;;;;;;;5047203;28;20044;-76
2023/07/21 07:53:35;;;;;;;1.83;1.73;;;;;;;;;;5040391;28;20037;-75
2023/07/21 07:56:01;;;;;;;2.05;1.58;;;;;;;;;;5006136;28;20046;-75
2023/07/21 07:58:26;;;;;;;2.08;1.80;;;;;;;;;;5044200;28;20048;-75
2023/07/21 08:00:57;;;;;;;1.65;1.55;;;;;;;;;;5042833;28;20040;-75
2023/07/21 08:03:22;;;;;;;1.35;1.15;;;;;;;;;;5040720;28;20087;-75
2023/07/21 08:05:50;;;;;;;2.65;1.90;;;;;;;;;;5043464;28;20068;-74
2023/07/21 08:08:18;;;;;;;2.45;1.92;;;;;;;;;;5036443;28;20385;-74
2023/07/21 08:10:44;;;;;;;2.55;2.00;;;;;;;;;;5041856;28;20043;-75
2023/07/21 08:13:10;;;;;;;2.00;1.80;;;;;;;;;;5045148;28;20412;-75
2023/07/21 08:15:36;;;;;;;2.95;1.98;;;;;;;;;;5036660;28;20531;-75
2023/07/21 08:18:01;;;;;;;2.58;1.83;;;;;;;;;;5044085;28;20848;-75
2023/07/21 08:20:26;;;;;;;3.75;1.70;;;;;;;;;;5038346;28;20033;-75
2023/07/21 08:22:52;;;;;;;1.45;1.33;;;;;;;;;;5024672;28;20159;-75
2023/07/21 08:25:18;;;;;;;3.72;2.38;;;;;;;;;;5040971;28;20068;-75
2023/07/21 08:27:44;;;;;;;1.63;1.52;;;;;;;;;;5019174;28;20505;-75
2023/07/21 08:30:10;;;;;;;1.67;1.40;;;;;;;;;;5036044;28;20047;-75
2023/07/21 08:32:37;;;;;;;1.55;1.33;;;;;;;;;;5043460;28;20032;-75
2023/07/21 08:35:04;;;;;;;2.00;1.80;;;;;;;;;;5008209;28;20042;-75
2023/07/21 08:37:30;;;;;;;2.15;1.33;;;;;;;;;;5030387;28;20048;-75
2023/07/21 08:39:55;;;;;;;1.25;1.15;;;;;;;;;;5040670;28;20041;-75
2023/07/21 08:42:23;;;;;;;1.85;1.65;;;;;;;;;;5036037;28;20090;-75
2023/07/21 08:44:49;;;;;;;2.30;1.83;;;;;;;;;;5038773;28;20032;-75
2023/07/21 08:47:14;;;;;;;1.70;1.60;;;;;;;;;;5034348;28;20509;-75
2023/07/21 08:49:40;;;;;;;1.45;1.20;;;;;;;;;;5032376;28;20040;-76
2023/07/21 08:52:06;;;;;;;1.08;0.98;;;;;;;;;;5014941;28;20047;-75
2023/07/21 08:54:32;;;;;;;2.13;1.67;;;;;;;;;;5033881;28;20033;-75
2023/07/21 08:56:57;;;;;;;1.38;1.10;;;;;;;;;;5035539;28;20830;-75
2023/07/21 08:59:23;;;;;;;1.90;1.80;;;;;;;;;;5039457;28;20572;-75
2023/07/21 09:01:48;;;;;;;1.17;1.00;;;;;;;;;;5027291;28;20036;-75
2023/07/21 09:04:19;;;;;;;1.45;1.35;;;;;;;;;;5029370;28;20029;-75
2023/07/21 09:06:55;;;;;;;2.05;1.85;;;;;;;;;;5044271;28;20042;-74
2023/07/21 09:09:24;;;;;;;0.98;0.90;;;;;;;;;;5039797;28;20374;-75
2023/07/21 09:11:58;;;;;;;0.90;0.90;;;;;;;;;;5037470;28;20040;-75
2023/07/21 09:14:43;;;;;;;1.58;1.48;;;;;;;;;;5044351;28;20043;-75
2023/07/21 09:17:11;;;;;;;1.30;1.20;;;;;;;;;;5040395;28;20115;-76
2023/07/21 09:19:41;;;;;;;1.85;1.67;;;;;;;;;;5037207;28;20060;-76
2023/07/21 09:22:08;;;;;;;2.38;1.80;;;;;;;;;;5026970;28;20563;-76
2023/07/21 09:24:34;;;;;;;2.40;2.13;;;;;;;;;;5044821;28;20036;-75
2023/07/21 09:27:13;;;;;;;2.75;1.70;;;;;;;;;;5046403;28;20029;-76
2023/07/21 09:29:40;;;;;;;2.13;1.92;;;;;;;;;;5001073;28;20046;-76
2023/07/21 09:32:16;;;;;;;2.30;1.83;;;;;;;;;;5026026;28;20041;-75
2023/07/21 09:34:56;;;;;;;1.17;0.90;;;;;;;;;;5033755;28;20036;-75
2023/07/21 09:37:25;;;;;;;2.22;1.50;;;;;;;;;;5043360;28;20040;-75
2023/07/21 09:39:53;;;;;;;1.30;1.20;;;;;;;;;;5035450;28;20111;-74
2023/07/21 09:42:22;;;;;;;2.55;1.70;;;;;;;;;;5040368;28;21240;-75
2023/07/21 09:44:48;;;;;;;1.23;1.13;;;;;;;;;;5042752;28;20733;-75
2023/07/21 09:47:16;;;;;;;1.52;1.30;;;;;;;;;;5024026;28;20079;-74
2023/07/21 09:49:41;;;;;;;1.42;1.33;;;;;;;;;;5016053;28;20121;-75
2023/07/21 09:52:11;;;;;;;1.48;1.25;;;;;;;;;;5031300;28;20120;-74
2023/07/21 09:54:39;;;;;;;1.20;1.10;;;;;;;;;;5051572;28;20139;-75
2023/07/21 09:57:06;;;;;;;0.90;0.90;;;;;;;;;;5033744;28;20120;-74
2023/07/21 09:59:35;;;;;;;1.60;1.50;;;;;;;;;;5023459;28;20040;-74
2023/07/21 10:02:02;;;;;;;2.97;1.73;;;;;;;;;;5036187;28;20444;-74
2023/07/21 10:04:28;;;;;;;1.30;1.13;;;;;;;;;;5031982;28;20040;-75
2023/07/21 10:06:58;;;;;;;1.38;1.27;;;;;;;;;;5024000;28;20033;-74
2023/07/21 10:09:26;;;;;;;1.17;1.08;;;;;;;;;;5041828;28;20033;-75
2023/07/21 10:11:52;;;;;;;2.67;1.50;;;;;;;;;;5040112;28;20041;-74
2023/07/21 10:14:33;;;;;;;0.90;0.90;;;;;;;;;;5042335;28;20075;-75
2023/07/21 10:16:59;;;;;;;1.63;1.52;;;;;;;;;;5033096;28;20436;-76
2023/07/21 10:19:28;;;;;;;1.67;1.10;;;;;;;;;;5024346;28;20477;-76
2023/07/21 10:21:54;;;;;;;1.83;1.73;;;;;;;;;;5042209;28;20033;-76
2023/07/21 10:24:27;;;;;;;2.47;1.45;;;;;;;;;;5037202;28;20072;-76
2023/07/21 10:26:55;;;;;;;2.33;1.65;;;;;;;;;;5039247;28;20029;-76
2023/07/21 10:29:20;;;;;;;1.75;1.50;;;;;;;;;;5045203;28;20594;-76
2023/07/21 10:31:56;;;;;;;2.03;1.77;;;;;;;;;;5017869;28;20036;-75
2023/07/21 10:34:40;;;;;;;1.65;1.55;;;;;;;;;;5019628;28;20160;-75
2023/07/21 10:37:07;;;;;;;3.17;1.70;;;;;;;;;;5023853;28;20040;-76
2023/07/21 10:39:35;;;;;;;1.63;1.50;;;;;;;;;;5032747;28;20049;-76
2023/07/21 10:42:03;;;;;;;1.73;1.63;;;;;;;;;;5031271;28;20029;-75
2023/07/21 10:44:33;;;;;;;1.52;1.20;;;;;;;;;;5037174;28;20121;-74
2023/07/21 10:46:59;;;;;;;;;;;;;;;;;;4995945;28;20136;-75
2023/07/21 10:49:24;;;;;;;2.47;1.70;;;;;;;;;;5030923;28;20003;-75
2023/07/21 10:51:50;;;;;;;2.03;1.50;;;;;;;;;;5024926;28;20728;-75
2023/07/21 10:54:17;;;;;;;2.05;1.80;;;;;;;;;;5037154;28;20043;-74
2023/07/21 10:56:44;;;;;;;2.42;1.70;;;;;;;;;;5028384;28;20112;-76
2023/07/21 10:59:11;;;;;;;1.98;1.88;;;;;;;;;;5009147;28;20034;-75
2023/07/21 11:01:44;;;;;;;1.25;1.13;;;;;;;;;;5001680;28;20068;-75
2023/07/21 11:04:11;;;;;;;1.70;1.60;;;;;;;;;;5028068;28;20088;-75
2023/07/21 11:06:40;;;;;;;1.65;1.55;;;;;;;;;;5031713;28;20029;-75
2023/07/21 11:09:05;;;;;;;1.50;1.40;;;;;;;;;;5021874;28;20480;-75
2023/07/21 11:11:31;;;;;;;2.08;1.25;;;;;;;;;;5045089;28;20115;-75
2023/07/21 11:13:56;;;;;;;2.17;1.98;;;;;;;;;;5037251;28;20040;-76
2023/07/21 11:16:21;;;;;;;2.05;1.95;;;;;;;;;;5033532;28;20110;-76
2023/07/21 11:18:47;;;;;;;2.40;1.67;;;;;;;;;;5041033;28;20032;-74
2023/07/21 11:21:12;;;;;;;1.63;1.52;;;;;;;;;;5034031;28;20520;-75
2023/07/21 11:23:37;;;;;;;1.50;1.40;;;;;;;;;;5006893;28;20041;-75
2023/07/21 11:26:11;;;;;;;1.35;1.10;;;;;;;;;;5043907;28;20668;-76
2023/07/21 11:28:41;;;;;;;2.00;1.90;;;;;;;;;;5040134;28;20044;-75
2023/07/21 11:31:14;;;;;;;1.10;1.00;;;;;;;;;;5036427;28;20537;-76
2023/07/21 11:33:45;;;;;;;1.80;1.70;;;;;;;;;;5044328;28;20053;-75
2023/07/21 11:36:17;;;;;;;1.90;1.80;;;;;;;;;;5003134;28;20645;-76
2023/07/21 11:39:07;;;;;;;1.52;1.42;;;;;;;;;;5035276;28;20040;-75
2023/07/21 11:41:39;;;;;;;1.92;1.67;;;;;;;;;;5043584;28;20411;-76
2023/07/21 11:44:11;;;;;;;1.42;1.20;;;;;;;;;;5046191;28;20043;-77
2023/07/21 11:46:37;;;;;;;2.20;1.80;;;;;;;;;;5003825;28;20041;-77
2023/07/21 11:49:14;;;;;;;2.30;2.10;;;;;;;;;;5046936;28;20029;-77
2023/07/21 11:51:43;;;;;;;1.45;1.35;;;;;;;;;;5040922;28;20189;-76
2023/07/21 11:54:24;;;;;;;0.80;0.80;;;;;;;;;;5034671;28;20143;-76
2023/07/21 11:56:51;;;;;;;1.90;1.80;;;;;;;;;;5036926;28;20057;-77
2023/07/21 11:59:21;;;;;;;2.05;1.83;;;;;;;;;;5044483;28;20044;-74
2023/07/21 12:01:47;;;;;;;2.10;1.90;;;;;;;;;;5032533;28;20049;-75
2023/07/21 12:04:13;;;;;;;3.40;1.60;;;;;;;;;;5020340;28;20037;-77
2023/07/21 12:06:39;;;;;;;1.90;1.80;;;;;;;;;;5013573;28;20041;-76
2023/07/21 12:09:05;;;;;;;2.13;1.48;;;;;;;;;;5037480;28;20037;-75
2023/07/21 12:11:32;;;;;;;2.13;1.92;;;;;;;;;;5031981;28;20139;-77
2023/07/21 12:13:57;;;;;;;1.92;1.70;;;;;;;;;;5043880;28;20107;-75
2023/07/21 12:16:23;;;;;;;1.77;1.67;;;;;;;;;;5026502;28;20037;-75
2023/07/21 12:18:49;;;;;;;1.52;1.42;;;;;;;;;;5039425;28;20627;-76
2023/07/21 12:21:17;;;;;;;2.08;1.90;;;;;;;;;;5034489;28;20131;-77
2023/07/21 12:23:43;;;;;;;1.88;1.77;;;;;;;;;;5044384;28;20102;-75
2023/07/21 12:26:09;;;;;;;1.90;1.73;;;;;;;;;;5021809;28;20041;-77
2023/07/21 12:28:34;;;;;;;2.25;1.80;;;;;;;;;;5032740;28;20025;-76
2023/07/21 12:31:00;;;;;;;1.98;1.65;;;;;;;;;;5034584;28;20040;-77
2023/07/21 12:33:27;;;;;;;3.20;1.70;;;;;;;;;;5041700;28;20132;-76
2023/07/21 12:35:54;;;;;;;1.92;1.73;;;;;;;;;;5041559;28;20469;-76
2023/07/21 12:38:20;;;;;;;1.80;1.70;;;;;;;;;;5034203;28;20045;-75
2023/07/21 12:40:46;;;;;;;1.40;1.30;;;;;;;;;;5043142;28;20124;-77
2023/07/21 12:43:11;;;;;;;1.90;1.80;;;;;;;;;;5026673;28;20049;-77
2023/07/21 12:45:38;;;;;;;2.13;1.70;;;;;;;;;;5031253;28;20157;-77
2023/07/21 12:48:03;;;;;;;1.23;1.13;;;;;;;;;;5045167;28;20120;-77
2023/07/21 12:50:29;;;;;;;2.05;1.40;;;;;;;;;;5036001;28;20037;-75
2023/07/21 12:52:54;;;;;;;1.67;1.58;;;;;;;;;;5024310;28;20058;-75
2023/07/21 12:55:20;;;;;;;1.30;1.20;;;;;;;;;;5032589;28;20095;-77
2023/07/21 12:57:46;;;;;;;1.50;1.10;;;;;;;;;;5038349;28;20567;-76
2023/07/21 13:00:13;;;;;;;1.88;1.77;;;;;;;;;;5044226;28;20169;-76
2023/07/21 13:02:39;;;;;;;1.70;1.60;;;;;;;;;;5037905;28;20087;-76
2023/07/21 13:05:06;;;;;;;2.00;1.60;;;;;;;;;;5019577;28;20044;-75
2023/07/21 13:07:32;;;;;;;1.40;1.08;;;;;;;;;;5024598;28;20116;-77
2023/07/21 13:09:57;;;;;;;1.48;1.30;;;;;;;;;;5035473;28;20037;-77
2023/07/21 13:12:23;;;;;;;1.70;1.55;;;;;;;;;;5038169;28;20032;-75
2023/07/21 13:14:48;;;;;;;1.27;1.00;;;;;;;;;;5023771;28;20526;-77
2023/07/21 13:17:15;;;;;;;1.92;1.13;;;;;;;;;;5028015;28;20456;-77
2023/07/21 13:19:40;;;;;;;1.60;1.48;;;;;;;;;;5041157;28;20105;-77
2023/07/21 13:22:06;;;;;;;1.48;1.38;;;;;;;;;;4986497;28;20050;-77
2023/07/21 13:24:31;;;;;;;1.65;1.50;;;;;;;;;;5038982;28;20156;-77
2023/07/21 13:26:57;;;;;;;1.55;1.45;;;;;;;;;;5029944;28;20051;-77
2023/07/21 13:29:22;;;;;;;2.05;1.40;;;;;;;;;;5026214;28;20045;-77
2023/07/21 13:31:48;;;;;;;1.48;1.38;;;;;;;;;;5035449;28;20032;-77
2023/07/21 13:34:14;;;;;;;1.70;1.60;;;;;;;;;;5028588;28;20134;-77
2023/07/21 13:36:41;;;;;;;3.15;1.73;;;;;;;;;;5046529;28;20036;-77
2023/07/21 13:39:08;;;;;;;1.50;1.40;;;;;;;;;;5045733;28;20039;-77
2023/07/21 13:41:33;;;;;;;2.03;1.02;;;;;;;;;;5046355;28;20493;-77
2023/07/21 13:43:59;;;;;;;0.75;0.75;;;;;;;;;;5040417;28;20036;-77
2023/07/21 13:46:24;;;;;;;0.98;0.82;;;;;;;;;;5041467;28;20040;-77
2023/07/21 13:48:50;;;;;;;1.60;0.85;;;;;;;;;;5032266;28;20082;-77
2023/07/21 13:51:16;;;;;;;0.90;0.90;;;;;;;;;;5017717;28;20092;-77
2023/07/21 13:53:41;;;;;;;0.80;0.80;;;;;;;;;;5042656;28;20071;-77
2023/07/21 13:56:07;;;;;;;0.95;0.60;;;;;;;;;;5040878;28;20444;-77
2023/07/21 13:58:32;;;;;;;1.23;1.23;;;;;;;;;;5021443;28;20065;-77
2023/07/21 14:00:57;;;;;;;0.95;0.70;;;;;;;;;;5043914;28;20087;-77
2023/07/21 14:03:26;;;;;;;0.77;0.75;;;;;;;;;;5026492;28;20075;-77
2023/07/21 14:05:52;;;;;;;0.77;0.70;;;;;;;;;;5040652;28;20520;-77
2023/07/21 14:08:19;;;;;;;1.15;0.90;;;;;;;;;;5025347;28;20083;-77
2023/07/21 14:10:45;;;;;;;1.27;1.02;;;;;;;;;;5017356;28;20048;-77
2023/07/21 14:13:10;;;;;;;1.45;0.95;;;;;;;;;;5029370;28;20095;-76
2023/07/21 14:15:36;;;;;;;2.40;0.88;;;;;;;;;;5027859;28;20048;-77
2023/07/21 14:18:02;;;;;;;0.90;0.82;;;;;;;;;;5003379;28;20039;-77
2023/07/21 14:20:28;;;;;;;1.17;1.00;;;;;;;;;;5028597;28;20452;-77
2023/07/21 14:22:54;;;;;;;1.35;1.08;;;;;;;;;;5030869;28;20041;-77
2023/07/21 14:25:20;;;;;;;0.88;0.82;;;;;;;;;;5025879;28;20052;-78
2023/07/21 14:27:45;;;;;;;1.05;0.80;;;;;;;;;;5017336;28;20044;-77
2023/07/21 14:30:11;;;;;;;0.88;0.88;;;;;;;;;;5016593;28;20464;-77
2023/07/21 14:32:36;;;;;;;1.20;1.02;;;;;;;;;;5043743;28;20041;-77
2023/07/21 14:35:03;;;;;;;1.08;1.00;;;;;;;;;;5042416;28;20543;-77
2023/07/21 14:37:29;;;;;;;1.10;1.00;;;;;;;;;;5040962;28;20580;-77
2023/07/21 14:39:55;;;;;;;1.00;1.00;;;;;;;;;;5028501;28;20034;-77
2023/07/21 14:42:21;;;;;;;1.20;1.10;;;;;;;;;;5036298;28;20032;-77